< Typhoon 197820 1978 Season Typhoon 197822 >
Typhoon 197821 (LOLA)
General InformationTrack Information on Google MapsDetailed Wind Information || Disaster Info.ResourceGoogle EarthGE AnimationAtom FeedGeoJSON
Detalied Best Track (Time Zone = UTC)
Year Month Day Hour Lat. Long. Pressure (hPa) Wind (kt) Class Image Chart
1978 9 24 06 12.1 134.5 1006 0 2 -- Chart
1978 9 24 12 12.1 133.5 1006 0 2 -- Chart
1978 9 24 18 12.1 132.3 1006 0 2 -- Chart
1978 9 25 00 12.2 131.0 1004 0 2 -- Chart
1978 9 25 06 12.3 129.8 1002 0 2 -- Chart
1978 9 25 12 12.3 128.7 1002 0 2 -- Chart
1978 9 25 18 12.3 127.7 1000 0 2 -- Chart
1978 9 26 00 12.1 126.9 996 35 3 -- Chart
1978 9 26 06 12.4 125.8 992 45 3 -- Chart
1978 9 26 12 12.8 124.6 990 45 3 -- Chart
1978 9 26 18 13.0 124.0 980 45 3 -- Chart
1978 9 27 00 13.6 122.3 980 50 4 -- Chart
1978 9 27 06 13.9 121.4 980 50 4 -- Chart
1978 9 27 12 14.2 120.4 980 55 4 -- Chart
1978 9 27 18 14.8 119.0 980 55 4 -- Chart
1978 9 28 00 15.0 118.1 980 55 4 -- Chart
1978 9 28 06 15.4 117.1 980 55 4 -- Chart
1978 9 28 12 15.9 116.4 975 60 4 -- Chart
1978 9 28 18 16.1 115.9 970 60 4 -- Chart
1978 9 29 00 16.4 115.0 965 65 5 -- Chart
1978 9 29 06 16.7 114.4 965 70 5 -- Chart
1978 9 29 12 17.0 113.7 965 70 5 -- Chart
1978 9 29 18 17.1 113.0 970 70 5 -- Chart
1978 9 30 00 17.2 112.7 970 70 5 -- Chart
1978 9 30 06 17.6 112.5 970 70 5 -- Chart
1978 9 30 12 18.1 112.4 970 70 5 -- Chart
1978 9 30 18 18.5 112.1 970 70 5 -- Chart
1978 10 1 00 18.8 111.7 970 70 5 -- Chart
1978 10 1 06 19.1 111.3 975 70 5 -- Chart
1978 10 1 12 19.5 110.9 975 65 5 -- Chart
1978 10 1 18 19.9 110.5 975 65 5 -- Chart
1978 10 2 00 20.3 110.1 975 60 4 -- Chart
1978 10 2 06 20.7 109.5 980 55 4 -- Chart
1978 10 2 12 21.2 108.6 985 50 4 -- Chart
1978 10 2 18 21.5 107.7 992 40 3 -- Chart
1978 10 3 00 21.5 106.6 1000 0 2 -- Chart
1978 10 3 06 21.8 106.0 1004 0 2 -- Chart
1978 10 3 12 22.0 105.0 1004 0 2 -- Chart
1978 10 3 18 22.0 104.4 1006 0 2 -- Chart
1978 10 4 00 22.0 104.0 1006 0 2 -- Chart
1978 10 4 06 22.0 103.5 1006 0 2 -- Chart
1978 10 4 12 22.0 103.0 1006 0 2 -- Chart
1978 10 4 18 22.0 102.5 1006 0 2 -- Chart
1978 10 5 00 22.0 102.0 1008 0 2 -- Chart
Japan Meteorological Agency Best Track Data | Correction Date : 1992-10-21
< Typhoon 197820 1978 Season Typhoon 197822 >

Help